Bismil, Turkey
Current Conditions -  °F | °C
As of 1:20 PM on Thursday 29 Jan 2015 (Local Time) from LTCC Reporting Station
Broken Clouds Broken Clouds  
Wind Chill: 44°   Ceiling: 10000
Heat Index: 46°   Visibility: 6mi
Dew Point: 37°   Wind: 5mph
Humidity: 71%   Direction: 90°E
Pressure: 29.97"   Gusts: NA
Location:  37.85°N, 40.67°E
Report Text: LTCC 291020Z 09004KT 050V140 9999 FEW040 BKN100 08/03 Q1015 NOSIG
Loading
Personal Weather Stations






























Interactive Weather Map New forecast layout! Learn more

10-Day Weather Forecast

Advertisements
Track Severe Weather on mobile